Aviation Digital Data Service (ADDS)

Output produced by METARs form (1906 UTC 19 April 2015)
found at http://www.aviationweather.gov/adds/metars/
 
KILG 191851Z AUTO 14012KT 10SM CLR 17/02 A3016 RMK AO2 SLP211 T01720022
KILG 191724Z 1918/2018 10012KT P6SM OVC250 
     FM192300 10015KT P6SM OVC100 
     FM200300 09017G27KT 6SM -SHRA OVC020 
     FM200500 09017G27KT 2SM -RA BR OVC006 WS020/13055KT 
     FM201500 16010KT 6SM -SHRA BR OVC015 
     FM201700 18008KT P6SM BKN025 OVC040